createdAt,value
2018-03-16T00:02:52.257Z,60.6
2018-03-16T00:13:39.764Z,60.7
2018-03-16T00:23:54.915Z,61.4
2018-03-16T00:34:09.158Z,61.7
2018-03-16T00:45:00.341Z,61.9
2018-03-16T00:55:13.964Z,61.5
2018-03-16T01:06:03.402Z,61.7
2018-03-16T01:16:18.391Z,61.8
2018-03-16T01:26:32.496Z,61.8
2018-03-16T01:37:27.245Z,61.9
2018-03-16T01:47:42.377Z,62.1
2018-03-16T01:58:33.914Z,62.0
2018-03-16T02:08:58.592Z,62.2
2018-03-16T02:19:16.593Z,62.0
2018-03-16T02:29:42.128Z,62.2
2018-03-16T02:40:28.096Z,62.4
2018-03-16T02:51:17.301Z,62.0
2018-03-16T03:01:36.406Z,62.5
2018-03-16T03:11:54.646Z,62.2
2018-03-16T03:22:13.698Z,62.6
2018-03-16T03:32:31.970Z,62.6
2018-03-16T03:42:46.691Z,62.4
2018-03-16T03:53:32.735Z,62.3
2018-03-16T04:03:53.411Z,62.2
2018-03-16T04:14:13.687Z,62.4
2018-03-16T04:25:11.663Z,62.3
2018-03-16T04:35:26.529Z,62.4
2018-03-16T04:45:41.730Z,62.6
2018-03-16T04:55:56.719Z,62.3
2018-03-16T05:06:17.371Z,62.6
2018-03-16T05:16:31.356Z,62.9
2018-03-16T05:26:46.116Z,63.2
2018-03-16T05:37:31.618Z,63.4
2018-03-16T05:47:46.084Z,63.1
2018-03-16T05:58:38.410Z,63.5
2018-03-16T06:08:53.019Z,63.0
2018-03-16T06:19:38.618Z,63.3
2018-03-16T06:29:56.895Z,63.2
2018-03-16T06:40:45.174Z,62.9
2018-03-16T06:52:07.944Z,63.8
2018-03-16T07:15:33.779Z,63.5
2018-03-16T07:27:43.037Z,63.8
2018-03-16T07:37:58.509Z,63.8
2018-03-16T07:50:15.279Z,63.6
2018-03-16T08:00:28.449Z,63.7
2018-03-16T08:13:42.932Z,63.8
2018-03-16T08:37:45.514Z,64.0
2018-03-16T08:50:53.937Z,64.5
2018-03-16T09:01:09.245Z,64.4
2018-03-16T09:13:01.292Z,64.5
2018-03-16T09:23:16.091Z,65.0
2018-03-16T09:33:30.396Z,64.9
2018-03-16T10:00:23.533Z,64.8
2018-03-16T10:43:09.774Z,64.9
2018-03-16T10:55:38.240Z,64.3
2018-03-16T11:34:16.210Z,64.2
2018-03-16T11:45:07.206Z,64.2
2018-03-16T12:14:32.370Z,63.8
2018-03-16T12:27:30.242Z,63.6
2018-03-16T12:37:45.518Z,63.4
2018-03-16T12:48:50.829Z,63.3
2018-03-16T13:00:04.492Z,63.9
2018-03-16T13:10:56.801Z,63.6
2018-03-16T13:22:05.263Z,63.4
2018-03-16T13:32:19.943Z,63.3
2018-03-16T13:56:31.561Z,63.4
2018-03-16T14:07:26.516Z,64.0
2018-03-16T14:18:24.097Z,63.6
2018-03-16T14:29:50.034Z,63.5
2018-03-16T14:40:43.147Z,63.2
2018-03-16T15:03:39.912Z,63.6
2018-03-16T15:13:55.270Z,63.4
2018-03-16T15:26:06.595Z,63.4
2018-03-16T15:36:21.624Z,63.4
2018-03-16T15:46:37.071Z,63.3
2018-03-16T15:56:52.087Z,63.1
2018-03-16T16:07:42.054Z,63.3
2018-03-16T16:17:58.079Z,62.9
2018-03-16T16:33:34.638Z,62.9
2018-03-16T16:46:57.182Z,62.7
2018-03-16T16:57:12.224Z,62.6
2018-03-16T17:09:17.197Z,62.6
2018-03-16T17:20:15.302Z,62.5
2018-03-16T17:46:23.529Z,62.5
2018-03-16T17:58:38.651Z,62.6
2018-03-16T18:08:53.606Z,62.5
2018-03-16T18:19:09.423Z,62.6
2018-03-16T18:30:10.950Z,62.5
2018-03-16T18:40:26.455Z,63.4
2018-03-16T19:08:01.322Z,63.1
2018-03-16T19:18:53.658Z,62.9
2018-03-16T21:21:37.339Z,57.9
2018-03-16T21:50:03.252Z,60.5
2018-03-16T22:04:13.197Z,61.8
2018-03-16T22:14:30.188Z,61.8
2018-03-16T22:25:45.452Z,62.0
2018-03-16T22:47:17.895Z,62.5
2018-03-16T23:12:17.660Z,62.5
2018-03-16T23:22:34.379Z,62.3
2018-03-16T23:36:38.954Z,62.8
2018-03-16T23:50:13.214Z,62.8
